sensor_id;sensor_type;location;lat;lon;timestamp;pressure;altitude;pressure_sealevel;temperature;humidity
2681;BME280;1350;42.134;24.708;2023-08-06T00:00:40;97991.97;;;25.89;100.00
2681;BME280;1350;42.134;24.708;2023-08-06T00:03:08;97990.72;;;25.85;100.00
2681;BME280;1350;42.134;24.708;2023-08-06T00:05:34;97983.41;;;25.79;100.00
2681;BME280;1350;42.134;24.708;2023-08-06T00:08:01;97980.25;;;25.88;100.00
2681;BME280;1350;42.134;24.708;2023-08-06T00:10:28;97984.25;;;25.86;100.00
2681;BME280;1350;42.134;24.708;2023-08-06T00:12:55;97972.84;;;25.64;100.00
2681;BME280;1350;42.134;24.708;2023-08-06T00:15:22;97972.91;;;25.45;100.00
2681;BME280;1350;42.134;24.708;2023-08-06T00:17:48;97976.13;;;25.73;100.00
2681;BME280;1350;42.134;24.708;2023-08-06T00:20:17;97970.22;;;25.89;100.00
2681;BME280;1350;42.134;24.708;2023-08-06T00:22:43;97967.53;;;25.82;100.00
2681;BME280;1350;42.134;24.708;2023-08-06T00:25:10;97970.44;;;25.94;100.00
2681;BME280;1350;42.134;24.708;2023-08-06T00:27:37;97971.47;;;25.86;100.00
2681;BME280;1350;42.134;24.708;2023-08-06T00:30:04;97974.91;;;25.75;100.00
2681;BME280;1350;42.134;24.708;2023-08-06T00:32:31;97989.72;;;25.73;100.00
2681;BME280;1350;42.134;24.708;2023-08-06T00:34:58;97989.38;;;26.13;100.00
2681;BME280;1350;42.134;24.708;2023-08-06T00:37:26;97978.56;;;25.94;100.00
2681;BME280;1350;42.134;24.708;2023-08-06T00:39:52;97977.09;;;25.91;100.00
2681;BME280;1350;42.134;24.708;2023-08-06T00:42:19;97982.56;;;25.85;100.00
2681;BME280;1350;42.134;24.708;2023-08-06T00:44:47;97976.44;;;25.96;100.00
2681;BME280;1350;42.134;24.708;2023-08-06T00:47:15;97967.75;;;25.81;100.00
2681;BME280;1350;42.134;24.708;2023-08-06T00:49:42;97972.50;;;25.92;100.00
2681;BME280;1350;42.134;24.708;2023-08-06T00:52:09;97961.97;;;25.71;100.00
2681;BME280;1350;42.134;24.708;2023-08-06T00:54:37;97959.56;;;25.37;100.00
2681;BME280;1350;42.134;24.708;2023-08-06T00:57:04;97953.31;;;25.17;100.00
2681;BME280;1350;42.134;24.708;2023-08-06T00:59:33;97939.59;;;24.99;100.00
2681;BME280;1350;42.134;24.708;2023-08-06T01:02:00;97939.38;;;24.87;100.00
2681;BME280;1350;42.134;24.708;2023-08-06T01:04:27;97932.28;;;24.86;100.00
2681;BME280;1350;42.134;24.708;2023-08-06T01:07:03;97935.34;;;25.16;100.00
2681;BME280;1350;42.134;24.708;2023-08-06T01:09:40;97935.94;;;25.44;100.00
2681;BME280;1350;42.134;24.708;2023-08-06T01:12:20;97944.06;;;25.44;100.00
2681;BME280;1350;42.134;24.708;2023-08-06T01:14:56;97944.69;;;25.52;100.00
2681;BME280;1350;42.134;24.708;2023-08-06T01:17:24;97957.50;;;25.83;100.00
2681;BME280;1350;42.134;24.708;2023-08-06T01:19:52;97947.25;;;25.85;100.00
2681;BME280;1350;42.134;24.708;2023-08-06T01:22:20;97950.50;;;26.06;100.00
2681;BME280;1350;42.134;24.708;2023-08-06T01:24:49;97954.81;;;26.20;100.00
2681;BME280;1350;42.134;24.708;2023-08-06T01:27:21;97961.34;;;26.13;100.00
2681;BME280;1350;42.134;24.708;2023-08-06T01:29:57;97964.16;;;26.00;100.00
2681;BME280;1350;42.134;24.708;2023-08-06T01:32:32;97954.06;;;26.07;100.00
2681;BME280;1350;42.134;24.708;2023-08-06T01:35:00;97946.94;;;25.62;100.00
2681;BME280;1350;42.134;24.708;2023-08-06T01:37:30;97941.50;;;25.62;100.00
2681;BME280;1350;42.134;24.708;2023-08-06T01:39:57;97927.44;;;25.78;100.00
2681;BME280;1350;42.134;24.708;2023-08-06T01:42:24;97926.78;;;25.82;100.00
2681;BME280;1350;42.134;24.708;2023-08-06T01:44:51;97918.00;;;25.43;100.00
2681;BME280;1350;42.134;24.708;2023-08-06T01:47:18;97906.34;;;25.23;100.00
2681;BME280;1350;42.134;24.708;2023-08-06T01:49:44;97904.00;;;25.39;100.00
2681;BME280;1350;42.134;24.708;2023-08-06T01:52:11;97916.34;;;25.22;100.00
2681;BME280;1350;42.134;24.708;2023-08-06T01:54:40;97921.97;;;25.21;100.00
2681;BME280;1350;42.134;24.708;2023-08-06T01:57:06;97936.38;;;25.41;100.00
2681;BME280;1350;42.134;24.708;2023-08-06T01:59:33;97945.38;;;25.35;100.00
2681;BME280;1350;42.134;24.708;2023-08-06T02:02:00;97947.22;;;25.47;100.00
2681;BME280;1350;42.134;24.708;2023-08-06T02:04:26;97967.28;;;25.46;100.00
2681;BME280;1350;42.134;24.708;2023-08-06T02:06:53;97966.03;;;25.10;100.00
2681;BME280;1350;42.134;24.708;2023-08-06T02:09:20;97933.06;;;25.19;100.00
2681;BME280;1350;42.134;24.708;2023-08-06T02:11:48;97927.41;;;25.34;100.00
2681;BME280;1350;42.134;24.708;2023-08-06T02:14:15;97945.06;;;25.56;100.00
2681;BME280;1350;42.134;24.708;2023-08-06T02:16:41;97936.56;;;25.52;100.00
2681;BME280;1350;42.134;24.708;2023-08-06T02:19:08;97935.94;;;25.44;100.00
2681;BME280;1350;42.134;24.708;2023-08-06T02:21:35;97934.06;;;25.51;100.00
2681;BME280;1350;42.134;24.708;2023-08-06T02:24:02;97943.06;;;25.45;100.00
2681;BME280;1350;42.134;24.708;2023-08-06T02:26:29;97937.56;;;25.58;100.00
2681;BME280;1350;42.134;24.708;2023-08-06T02:28:57;97920.41;;;25.57;100.00
2681;BME280;1350;42.134;24.708;2023-08-06T02:31:23;97926.91;;;25.63;100.00
2681;BME280;1350;42.134;24.708;2023-08-06T02:33:50;97928.97;;;25.61;100.00
2681;BME280;1350;42.134;24.708;2023-08-06T02:36:17;97930.19;;;25.01;100.00
2681;BME280;1350;42.134;24.708;2023-08-06T02:38:44;97927.47;;;25.01;100.00
2681;BME280;1350;42.134;24.708;2023-08-06T02:41:10;97924.97;;;25.06;100.00
2681;BME280;1350;42.134;24.708;2023-08-06T02:43:37;97921.19;;;25.14;100.00
2681;BME280;1350;42.134;24.708;2023-08-06T02:46:05;97918.69;;;24.99;100.00
2681;BME280;1350;42.134;24.708;2023-08-06T02:48:32;97922.41;;;25.18;100.00
2681;BME280;1350;42.134;24.708;2023-08-06T02:50:59;97922.50;;;24.78;100.00
2681;BME280;1350;42.134;24.708;2023-08-06T02:53:26;97928.13;;;24.70;100.00
2681;BME280;1350;42.134;24.708;2023-08-06T02:55:53;97930.84;;;24.70;100.00
2681;BME280;1350;42.134;24.708;2023-08-06T02:58:19;97924.75;;;24.49;100.00
2681;BME280;1350;42.134;24.708;2023-08-06T03:00:59;97921.22;;;24.61;100.00
2681;BME280;1350;42.134;24.708;2023-08-06T03:03:27;97921.22;;;24.88;100.00
2681;BME280;1350;42.134;24.708;2023-08-06T03:05:54;97916.66;;;24.75;100.00
2681;BME280;1350;42.134;24.708;2023-08-06T03:08:21;97919.97;;;24.97;100.00
2681;BME280;1350;42.134;24.708;2023-08-06T03:10:48;97914.31;;;25.05;100.00
2681;BME280;1350;42.134;24.708;2023-08-06T03:13:15;97917.63;;;25.13;100.00
2681;BME280;1350;42.134;24.708;2023-08-06T03:15:42;97927.47;;;25.08;100.00
2681;BME280;1350;42.134;24.708;2023-08-06T03:18:09;97914.97;;;24.80;100.00
2681;BME280;1350;42.134;24.708;2023-08-06T03:20:37;97906.41;;;24.64;100.00
2681;BME280;1350;42.134;24.708;2023-08-06T03:23:03;97912.03;;;24.82;100.00
2681;BME280;1350;42.134;24.708;2023-08-06T03:25:30;97919.53;;;24.93;100.00
2681;BME280;1350;42.134;24.708;2023-08-06T03:27:57;97922.47;;;24.92;100.00
2681;BME280;1350;42.134;24.708;2023-08-06T03:30:24;97925.63;;;24.69;100.00
2681;BME280;1350;42.134;24.708;2023-08-06T03:32:50;97929.56;;;24.60;100.00
2681;BME280;1350;42.134;24.708;2023-08-06T03:35:17;97944.78;;;24.61;100.00
2681;BME280;1350;42.134;24.708;2023-08-06T03:37:45;97939.97;;;24.50;100.00
2681;BME280;1350;42.134;24.708;2023-08-06T03:40:12;97925.38;;;24.64;100.00
2681;BME280;1350;42.134;24.708;2023-08-06T03:42:39;97922.88;;;24.95;100.00
2681;BME280;1350;42.134;24.708;2023-08-06T03:45:06;97932.06;;;24.88;100.00
2681;BME280;1350;42.134;24.708;2023-08-06T03:47:34;97937.47;;;24.55;100.00
2681;BME280;1350;42.134;24.708;2023-08-06T03:50:00;97927.88;;;24.59;100.00
2681;BME280;1350;42.134;24.708;2023-08-06T03:52:27;97927.06;;;24.71;100.00
2681;BME280;1350;42.134;24.708;2023-08-06T03:54:55;97923.50;;;24.71;100.00
2681;BME280;1350;42.134;24.708;2023-08-06T03:57:22;97932.06;;;24.68;100.00
2681;BME280;1350;42.134;24.708;2023-08-06T03:59:49;97934.38;;;24.84;100.00
2681;BME280;1350;42.134;24.708;2023-08-06T04:02:15;97954.78;;;24.60;100.00
2681;BME280;1350;42.134;24.708;2023-08-06T04:04:42;97950.81;;;24.63;100.00
2681;BME280;1350;42.134;24.708;2023-08-06T04:07:09;97949.59;;;24.72;100.00
2681;BME280;1350;42.134;24.708;2023-08-06T04:09:51;97947.28;;;24.88;100.00
2681;BME280;1350;42.134;24.708;2023-08-06T04:12:19;97947.88;;;24.51;100.00
2681;BME280;1350;42.134;24.708;2023-08-06T04:14:46;97957.50;;;24.54;100.00
2681;BME280;1350;42.134;24.708;2023-08-06T04:17:13;97945.84;;;24.73;100.00
2681;BME280;1350;42.134;24.708;2023-08-06T04:19:40;97945.22;;;24.84;100.00
2681;BME280;1350;42.134;24.708;2023-08-06T04:22:06;97945.00;;;24.99;100.00
2681;BME280;1350;42.134;24.708;2023-08-06T04:24:33;97957.72;;;25.05;100.00
2681;BME280;1350;42.134;24.708;2023-08-06T04:27:00;97954.56;;;25.14;100.00
2681;BME280;1350;42.134;24.708;2023-08-06T04:29:28;97970.03;;;25.14;100.00
2681;BME280;1350;42.134;24.708;2023-08-06T04:31:55;97973.34;;;25.16;100.00
2681;BME280;1350;42.134;24.708;2023-08-06T04:34:21;97965.44;;;25.08;100.00
2681;BME280;1350;42.134;24.708;2023-08-06T04:36:48;97961.25;;;25.18;100.00
2681;BME280;1350;42.134;24.708;2023-08-06T04:39:15;97963.09;;;25.37;100.00
2681;BME280;1350;42.134;24.708;2023-08-06T04:41:42;97954.06;;;25.50;100.00
2681;BME280;1350;42.134;24.708;2023-08-06T04:44:08;97941.97;;;25.52;100.00
2681;BME280;1350;42.134;24.708;2023-08-06T04:46:36;97947.72;;;25.75;100.00
2681;BME280;1350;42.134;24.708;2023-08-06T04:49:03;97935.91;;;25.94;100.00
2681;BME280;1350;42.134;24.708;2023-08-06T04:51:30;97950.34;;;25.95;100.00
2681;BME280;1350;42.134;24.708;2023-08-06T04:53:57;97969.38;;;25.88;100.00
2681;BME280;1350;42.134;24.708;2023-08-06T04:56:23;97957.25;;;25.91;100.00
2681;BME280;1350;42.134;24.708;2023-08-06T04:58:50;97945.78;;;25.89;100.00
2681;BME280;1350;42.134;24.708;2023-08-06T05:01:17;97943.09;;;25.82;100.00
2681;BME280;1350;42.134;24.708;2023-08-06T05:03:46;97966.66;;;25.88;100.00
2681;BME280;1350;42.134;24.708;2023-08-06T05:06:13;97973.63;;;25.71;100.00
2681;BME280;1350;42.134;24.708;2023-08-06T05:08:40;97971.38;;;25.62;100.00
2681;BME280;1350;42.134;24.708;2023-08-06T05:11:06;97958.44;;;25.57;100.00
2681;BME280;1350;42.134;24.708;2023-08-06T05:13:33;97956.16;;;25.54;100.00
2681;BME280;1350;42.134;24.708;2023-08-06T05:16:00;97960.56;;;25.49;100.00
2681;BME280;1350;42.134;24.708;2023-08-06T05:18:27;97953.06;;;25.44;100.00
2681;BME280;1350;42.134;24.708;2023-08-06T05:20:55;97956.44;;;25.07;100.00
2681;BME280;1350;42.134;24.708;2023-08-06T05:23:22;97975.22;;;24.96;100.00
2681;BME280;1350;42.134;24.708;2023-08-06T05:25:49;97972.34;;;24.91;100.00
2681;BME280;1350;42.134;24.708;2023-08-06T05:28:15;97964.16;;;24.97;100.00
2681;BME280;1350;42.134;24.708;2023-08-06T05:30:42;97955.00;;;24.85;100.00
2681;BME280;1350;42.134;24.708;2023-08-06T05:33:09;97945.81;;;24.92;100.00
2681;BME280;1350;42.134;24.708;2023-08-06T05:35:36;97947.72;;;24.99;100.00
2681;BME280;1350;42.134;24.708;2023-08-06T05:38:04;97946.03;;;24.91;100.00
2681;BME280;1350;42.134;24.708;2023-08-06T05:40:33;97944.75;;;24.54;100.00
2681;BME280;1350;42.134;24.708;2023-08-06T05:42:59;97959.78;;;24.50;100.00
2681;BME280;1350;42.134;24.708;2023-08-06T05:45:26;97954.75;;;24.21;100.00
2681;BME280;1350;42.134;24.708;2023-08-06T05:47:53;97942.00;;;24.09;100.00
2681;BME280;1350;42.134;24.708;2023-08-06T05:50:23;97931.38;;;24.07;100.00
2681;BME280;1350;42.134;24.708;2023-08-06T05:52:49;97924.69;;;23.97;100.00
2681;BME280;1350;42.134;24.708;2023-08-06T05:55:18;97955.06;;;23.92;100.00
2681;BME280;1350;42.134;24.708;2023-08-06T05:57:45;97942.34;;;23.86;100.00
2681;BME280;1350;42.134;24.708;2023-08-06T06:00:12;97936.69;;;23.81;100.00
2681;BME280;1350;42.134;24.708;2023-08-06T06:02:38;97928.13;;;23.78;100.00
2681;BME280;1350;42.134;24.708;2023-08-06T06:05:06;97927.97;;;23.86;100.00
2681;BME280;1350;42.134;24.708;2023-08-06T06:07:32;97923.16;;;23.81;100.00
2681;BME280;1350;42.134;24.708;2023-08-06T06:09:59;97920.00;;;23.78;100.00
2681;BME280;1350;42.134;24.708;2023-08-06T06:12:27;97921.03;;;23.70;100.00
2681;BME280;1350;42.134;24.708;2023-08-06T06:14:54;97937.84;;;23.59;100.00
2681;BME280;1350;42.134;24.708;2023-08-06T06:17:21;97940.56;;;23.59;100.00
2681;BME280;1350;42.134;24.708;2023-08-06T06:19:48;97935.84;;;23.81;100.00
2681;BME280;1350;42.134;24.708;2023-08-06T06:22:14;97922.56;;;23.92;100.00
2681;BME280;1350;42.134;24.708;2023-08-06T06:24:41;97918.59;;;23.95;100.00
2681;BME280;1350;42.134;24.708;2023-08-06T06:27:08;97927.81;;;24.00;100.00
2681;BME280;1350;42.134;24.708;2023-08-06T06:29:36;97932.44;;;24.06;100.00
2681;BME280;1350;42.134;24.708;2023-08-06T06:32:03;97935.38;;;24.24;100.00
2681;BME280;1350;42.134;24.708;2023-08-06T06:34:30;97941.00;;;24.36;100.00
2681;BME280;1350;42.134;24.708;2023-08-06T06:36:56;97949.13;;;24.42;100.00
2681;BME280;1350;42.134;24.708;2023-08-06T06:39:23;97955.41;;;24.43;100.00
2681;BME280;1350;42.134;24.708;2023-08-06T06:41:50;97962.47;;;24.44;100.00
2681;BME280;1350;42.134;24.708;2023-08-06T06:44:17;97961.00;;;24.48;100.00
2681;BME280;1350;42.134;24.708;2023-08-06T06:46:46;97951.88;;;24.55;100.00
2681;BME280;1350;42.134;24.708;2023-08-06T06:49:13;97951.63;;;24.44;100.00
2681;BME280;1350;42.134;24.708;2023-08-06T06:51:40;97946.22;;;24.37;100.00
2681;BME280;1350;42.134;24.708;2023-08-06T06:54:07;97947.28;;;24.43;100.00
2681;BME280;1350;42.134;24.708;2023-08-06T06:56:33;97949.56;;;24.46;100.00
2681;BME280;1350;42.134;24.708;2023-08-06T06:59:00;97946.84;;;24.46;100.00
2681;BME280;1350;42.134;24.708;2023-08-06T07:01:27;97955.19;;;24.57;100.00
2681;BME280;1350;42.134;24.708;2023-08-06T07:03:55;97952.69;;;24.62;100.00
2681;BME280;1350;42.134;24.708;2023-08-06T07:06:22;97954.16;;;24.58;100.00
2681;BME280;1350;42.134;24.708;2023-08-06T07:08:49;97956.06;;;24.71;100.00
2681;BME280;1350;42.134;24.708;2023-08-06T07:11:16;97956.47;;;24.81;100.00
2681;BME280;1350;42.134;24.708;2023-08-06T07:13:42;97967.91;;;25.16;100.00
2681;BME280;1350;42.134;24.708;2023-08-06T07:16:09;97972.22;;;25.56;100.00
2681;BME280;1350;42.134;24.708;2023-08-06T07:18:36;97972.03;;;26.45;100.00
2681;BME280;1350;42.134;24.708;2023-08-06T07:21:04;97977.91;;;26.98;100.00
2681;BME280;1350;42.134;24.708;2023-08-06T07:23:31;97979.25;;;27.38;100.00
2681;BME280;1350;42.134;24.708;2023-08-06T07:25:58;97981.81;;;27.51;100.00
2681;BME280;1350;42.134;24.708;2023-08-06T07:28:25;97994.63;;;27.69;100.00
2681;BME280;1350;42.134;24.708;2023-08-06T07:30:51;98004.28;;;27.47;100.00
2681;BME280;1350;42.134;24.708;2023-08-06T07:33:18;98001.56;;;27.65;100.00
2681;BME280;1350;42.134;24.708;2023-08-06T07:35:45;97991.50;;;27.83;100.00
2681;BME280;1350;42.134;24.708;2023-08-06T07:38:13;97988.44;;;28.28;100.00
2681;BME280;1350;42.134;24.708;2023-08-06T07:40:40;97978.97;;;28.42;100.00
2681;BME280;1350;42.134;24.708;2023-08-06T07:43:06;97973.91;;;28.45;100.00
2681;BME280;1350;42.134;24.708;2023-08-06T07:45:34;97978.47;;;27.85;100.00
2681;BME280;1350;42.134;24.708;2023-08-06T07:48:01;97974.94;;;27.67;100.00
2681;BME280;1350;42.134;24.708;2023-08-06T07:50:28;97971.44;;;27.17;100.00
2681;BME280;1350;42.134;24.708;2023-08-06T07:52:55;97982.91;;;27.01;100.00
2681;BME280;1350;42.134;24.708;2023-08-06T07:55:23;97979.78;;;26.73;100.00
2681;BME280;1350;42.134;24.708;2023-08-06T07:57:50;97989.16;;;26.77;100.00
2681;BME280;1350;42.134;24.708;2023-08-06T08:00:17;97986.56;;;26.58;100.00
2681;BME280;1350;42.134;24.708;2023-08-06T08:02:44;97997.44;;;26.26;100.00
2681;BME280;1350;42.134;24.708;2023-08-06T08:05:11;97999.41;;;26.06;100.00
2681;BME280;1350;42.134;24.708;2023-08-06T08:07:38;98010.56;;;25.85;100.00
2681;BME280;1350;42.134;24.708;2023-08-06T08:10:06;98005.84;;;25.68;100.00
2681;BME280;1350;42.134;24.708;2023-08-06T08:12:34;97994.00;;;25.49;100.00
2681;BME280;1350;42.134;24.708;2023-08-06T08:15:01;98005.28;;;25.46;100.00
2681;BME280;1350;42.134;24.708;2023-08-06T08:17:28;98002.75;;;25.32;100.00
2681;BME280;1350;42.134;24.708;2023-08-06T08:19:55;97999.66;;;25.15;100.00
2681;BME280;1350;42.134;24.708;2023-08-06T08:22:22;97998.19;;;25.13;100.00
2681;BME280;1350;42.134;24.708;2023-08-06T08:24:49;97988.19;;;25.00;100.00
2681;BME280;1350;42.134;24.708;2023-08-06T08:27:15;97986.09;;;25.02;100.00
2681;BME280;1350;42.134;24.708;2023-08-06T08:29:44;98000.50;;;25.09;100.00
2681;BME280;1350;42.134;24.708;2023-08-06T08:32:10;97997.38;;;25.12;100.00
2681;BME280;1350;42.134;24.708;2023-08-06T08:34:37;97997.16;;;25.07;100.00
2681;BME280;1350;42.134;24.708;2023-08-06T08:37:04;97989.44;;;25.11;100.00
2681;BME280;1350;42.134;24.708;2023-08-06T08:39:31;97988.81;;;25.22;100.00
2681;BME280;1350;42.134;24.708;2023-08-06T08:41:58;97983.75;;;25.32;100.00
2681;BME280;1350;42.134;24.708;2023-08-06T08:44:25;97984.59;;;25.39;100.00
2681;BME280;1350;42.134;24.708;2023-08-06T08:46:56;97993.56;;;25.46;100.00
2681;BME280;1350;42.134;24.708;2023-08-06T08:49:24;97991.63;;;25.66;100.00
2681;BME280;1350;42.134;24.708;2023-08-06T08:51:53;97988.38;;;26.01;100.00
2681;BME280;1350;42.134;24.708;2023-08-06T08:54:20;97994.16;;;26.18;100.00
2681;BME280;1350;42.134;24.708;2023-08-06T08:56:49;97983.22;;;26.56;100.00
2681;BME280;1350;42.134;24.708;2023-08-06T08:59:16;97982.94;;;27.19;100.00
2681;BME280;1350;42.134;24.708;2023-08-06T09:01:44;97982.25;;;27.66;100.00
2681;BME280;1350;42.134;24.708;2023-08-06T09:04:17;97974.31;;;28.01;100.00
2681;BME280;1350;42.134;24.708;2023-08-06T09:06:46;97973.38;;;28.55;100.00
2681;BME280;1350;42.134;24.708;2023-08-06T09:09:16;97957.72;;;29.26;99.38
2681;BME280;1350;42.134;24.708;2023-08-06T09:11:47;97962.00;;;29.96;90.24
2681;BME280;1350;42.134;24.708;2023-08-06T09:14:15;97951.44;;;30.72;84.14
2681;BME280;1350;42.134;24.708;2023-08-06T09:16:42;97949.06;;;31.42;78.07
2681;BME280;1350;42.134;24.708;2023-08-06T09:19:09;97948.34;;;31.90;74.14
2681;BME280;1350;42.134;24.708;2023-08-06T09:21:40;97944.09;;;32.47;70.16
2681;BME280;1350;42.134;24.708;2023-08-06T09:24:08;97943.00;;;32.26;70.77
2681;BME280;1350;42.134;24.708;2023-08-06T09:26:36;97934.69;;;32.38;71.61
2681;BME280;1350;42.134;24.708;2023-08-06T09:29:05;97942.31;;;32.36;70.84
2681;BME280;1350;42.134;24.708;2023-08-06T09:31:40;97943.13;;;32.90;70.09
2681;BME280;1350;42.134;24.708;2023-08-06T09:34:11;97946.13;;;33.61;63.39
2681;BME280;1350;42.134;24.708;2023-08-06T09:36:41;97948.38;;;33.64;60.74
2681;BME280;1350;42.134;24.708;2023-08-06T09:39:13;97947.56;;;32.64;64.50
2681;BME280;1350;42.134;24.708;2023-08-06T09:41:40;97942.59;;;32.13;64.68
2681;BME280;1350;42.134;24.708;2023-08-06T09:44:15;97938.44;;;31.67;65.34
2681;BME280;1350;42.134;24.708;2023-08-06T09:46:42;97945.56;;;31.68;67.29
2681;BME280;1350;42.134;24.708;2023-08-06T09:49:09;97942.41;;;31.98;65.54
2681;BME280;1350;42.134;24.708;2023-08-06T09:51:37;97933.34;;;31.97;64.56
2681;BME280;1350;42.134;24.708;2023-08-06T09:54:07;97927.97;;;32.29;60.09
2681;BME280;1350;42.134;24.708;2023-08-06T09:56:37;97931.22;;;32.47;59.58
2681;BME280;1350;42.134;24.708;2023-08-06T09:59:04;97934.69;;;32.16;56.77
2681;BME280;1350;42.134;24.708;2023-08-06T10:01:32;97933.59;;;31.74;58.28
2681;BME280;1350;42.134;24.708;2023-08-06T10:04:00;97930.59;;;31.97;55.53
2681;BME280;1350;42.134;24.708;2023-08-06T10:06:28;97919.59;;;32.40;54.08
2681;BME280;1350;42.134;24.708;2023-08-06T10:08:55;97914.63;;;32.16;54.58
2681;BME280;1350;42.134;24.708;2023-08-06T10:11:24;97916.78;;;32.35;54.57
2681;BME280;1350;42.134;24.708;2023-08-06T10:13:54;97907.00;;;32.44;53.62
2681;BME280;1350;42.134;24.708;2023-08-06T10:16:23;97898.75;;;33.03;51.44
2681;BME280;1350;42.134;24.708;2023-08-06T10:18:51;97898.50;;;33.51;51.70
2681;BME280;1350;42.134;24.708;2023-08-06T10:21:19;97882.94;;;33.71;51.47
2681;BME280;1350;42.134;24.708;2023-08-06T10:23:53;97890.78;;;33.48;50.35
2681;BME280;1350;42.134;24.708;2023-08-06T10:26:20;97902.38;;;33.60;49.87
2681;BME280;1350;42.134;24.708;2023-08-06T10:28:52;97901.44;;;33.91;48.61
2681;BME280;1350;42.134;24.708;2023-08-06T10:31:19;97889.19;;;33.62;50.04
2681;BME280;1350;42.134;24.708;2023-08-06T10:33:47;97894.16;;;33.65;49.11
2681;BME280;1350;42.134;24.708;2023-08-06T10:36:15;97883.34;;;34.10;48.43
2681;BME280;1350;42.134;24.708;2023-08-06T10:38:45;97890.53;;;33.54;47.74
2681;BME280;1350;42.134;24.708;2023-08-06T10:41:16;97892.53;;;33.64;47.64
2681;BME280;1350;42.134;24.708;2023-08-06T10:43:43;97897.50;;;33.72;46.79
2681;BME280;1350;42.134;24.708;2023-08-06T10:46:21;97897.25;;;33.73;45.44
2681;BME280;1350;42.134;24.708;2023-08-06T10:48:49;97897.81;;;33.80;45.73
2681;BME280;1350;42.134;24.708;2023-08-06T10:51:15;97899.56;;;34.06;45.92
2681;BME280;1350;42.134;24.708;2023-08-06T10:53:43;97907.16;;;34.71;44.10
2681;BME280;1350;42.134;24.708;2023-08-06T10:56:14;97907.97;;;34.52;44.54
2681;BME280;1350;42.134;24.708;2023-08-06T10:58:40;97916.53;;;33.83;45.49
2681;BME280;1350;42.134;24.708;2023-08-06T11:01:08;97915.78;;;33.46;46.39
2681;BME280;1350;42.134;24.708;2023-08-06T11:03:37;97906.06;;;33.29;46.50
2681;BME280;1350;42.134;24.708;2023-08-06T11:06:04;97900.25;;;33.77;45.77
2681;BME280;1350;42.134;24.708;2023-08-06T11:08:34;97898.47;;;34.02;46.10
2681;BME280;1350;42.134;24.708;2023-08-06T11:11:08;97906.03;;;34.42;44.66
2681;BME280;1350;42.134;24.708;2023-08-06T11:13:36;97911.19;;;34.13;44.75
2681;BME280;1350;42.134;24.708;2023-08-06T11:16:04;97910.03;;;34.09;45.04
2681;BME280;1350;42.134;24.708;2023-08-06T11:18:31;97909.59;;;33.71;45.07
2681;BME280;1350;42.134;24.708;2023-08-06T11:21:00;97912.28;;;34.17;44.67
2681;BME280;1350;42.134;24.708;2023-08-06T11:23:27;97914.25;;;34.32;44.53
2681;BME280;1350;42.134;24.708;2023-08-06T11:25:55;97914.88;;;34.59;43.92
2681;BME280;1350;42.134;24.708;2023-08-06T11:28:22;97916.78;;;34.49;43.81
2681;BME280;1350;42.134;24.708;2023-08-06T11:30:49;97917.16;;;33.95;44.03
2681;BME280;1350;42.134;24.708;2023-08-06T11:33:20;97912.63;;;34.46;43.48
2681;BME280;1350;42.134;24.708;2023-08-06T11:35:48;97907.66;;;34.43;43.79
2681;BME280;1350;42.134;24.708;2023-08-06T11:38:16;97911.00;;;34.60;43.92
2681;BME280;1350;42.134;24.708;2023-08-06T11:40:44;97910.16;;;34.40;43.24
2681;BME280;1350;42.134;24.708;2023-08-06T11:43:12;97912.56;;;34.16;43.82
2681;BME280;1350;42.134;24.708;2023-08-06T11:45:39;97921.63;;;34.21;44.12
2681;BME280;1350;42.134;24.708;2023-08-06T11:48:06;97910.56;;;33.96;44.53
2681;BME280;1350;42.134;24.708;2023-08-06T11:50:36;97907.72;;;33.76;44.79
2681;BME280;1350;42.134;24.708;2023-08-06T11:53:03;97917.84;;;33.29;45.04
2681;BME280;1350;42.134;24.708;2023-08-06T11:55:32;97909.13;;;33.37;44.85
2681;BME280;1350;42.134;24.708;2023-08-06T11:58:02;97911.28;;;33.35;43.78
2681;BME280;1350;42.134;24.708;2023-08-06T12:00:29;97913.94;;;33.15;43.74
2681;BME280;1350;42.134;24.708;2023-08-06T12:02:56;97909.06;;;33.27;43.85
2681;BME280;1350;42.134;24.708;2023-08-06T12:05:28;97917.81;;;33.61;43.85
2681;BME280;1350;42.134;24.708;2023-08-06T12:07:56;97926.94;;;33.71;43.84
2681;BME280;1350;42.134;24.708;2023-08-06T12:10:25;97928.56;;;34.34;42.54
2681;BME280;1350;42.134;24.708;2023-08-06T12:12:53;97925.34;;;34.92;41.94
2681;BME280;1350;42.134;24.708;2023-08-06T12:15:22;97923.13;;;35.44;40.97
2681;BME280;1350;42.134;24.708;2023-08-06T12:17:49;97924.06;;;35.99;39.46
2681;BME280;1350;42.134;24.708;2023-08-06T12:20:16;97928.63;;;36.33;39.27
2681;BME280;1350;42.134;24.708;2023-08-06T12:22:43;97919.28;;;36.63;38.86
2681;BME280;1350;42.134;24.708;2023-08-06T12:25:11;97928.63;;;36.33;38.76
2681;BME280;1350;42.134;24.708;2023-08-06T12:27:39;97925.97;;;36.03;38.55
2681;BME280;1350;42.134;24.708;2023-08-06T12:30:09;97924.97;;;36.43;38.42
2681;BME280;1350;42.134;24.708;2023-08-06T12:32:37;97921.69;;;36.79;37.79
2681;BME280;1350;42.134;24.708;2023-08-06T12:35:05;97923.59;;;36.84;37.69
2681;BME280;1350;42.134;24.708;2023-08-06T12:37:32;97920.03;;;36.78;37.74
2681;BME280;1350;42.134;24.708;2023-08-06T12:39:59;97925.53;;;36.78;37.75
2681;BME280;1350;42.134;24.708;2023-08-06T12:42:26;97917.53;;;37.10;37.84
2681;BME280;1350;42.134;24.708;2023-08-06T12:44:53;97929.31;;;37.26;37.33
2681;BME280;1350;42.134;24.708;2023-08-06T12:47:21;97917.81;;;37.09;36.63
2681;BME280;1350;42.134;24.708;2023-08-06T12:49:48;97918.41;;;37.06;36.55
2681;BME280;1350;42.134;24.708;2023-08-06T12:52:15;97921.97;;;37.40;36.75
2681;BME280;1350;42.134;24.708;2023-08-06T12:54:42;97921.44;;;36.76;37.03
2681;BME280;1350;42.134;24.708;2023-08-06T12:57:11;97914.63;;;36.58;37.07
2681;BME280;1350;42.134;24.708;2023-08-06T12:59:38;97924.50;;;36.64;36.52
2681;BME280;1350;42.134;24.708;2023-08-06T13:02:05;97920.34;;;36.72;36.67
2681;BME280;1350;42.134;24.708;2023-08-06T13:04:33;97926.59;;;36.49;36.49